Time,TemperatureF,DewpointF,PressureIn,WindDirection,WindDirectionDegrees,WindSpeedMPH,WindSpeedGustMPH,Humidity,HourlyPrecipIn,Conditions,Clouds,dailyrainin,SoftwareType,DateUTC
2013-02-10 00:00:00,28.6,20.4,30.36,WSW,252,0.0,1.0,71,0.00,,,0.00,WUHU216DAVISVP2,2013-02-10 05:00:00,
2013-02-10 00:05:00,28.7,19.5,30.37,SSW,198,0.0,1.0,68,0.00,,,0.00,WUHU216DAVISVP2,2013-02-10 05:05:00,
2013-02-10 00:10:00,28.7,21.2,30.37,SSW,199,0.0,0.0,73,0.00,,,0.00,WUHU216DAVISVP2,2013-02-10 05:10:00,
2013-02-10 00:15:00,28.3,20.4,30.37,SSW,198,0.0,0.0,72,0.00,,,0.00,WUHU216DAVISVP2,2013-02-10 05:15:00,
2013-02-10 00:20:00,28.1,21.8,30.37,SE,129,0.0,1.0,77,0.00,,,0.00,WUHU216DAVISVP2,2013-02-10 05:20:00,
2013-02-10 00:25:00,28.0,22.3,30.37,ESE,117,0.0,1.0,79,0.00,,,0.00,WUHU216DAVISVP2,2013-02-10 05:25:00,
2013-02-10 00:30:00,28.3,21.4,30.37,ESE,117,0.0,1.0,75,0.00,,,0.00,WUHU216DAVISVP2,2013-02-10 05:30:00,
2013-02-10 00:35:00,28.9,20.4,30.38,ESE,117,0.0,1.0,70,0.00,,,0.00,WUHU216DAVISVP2,2013-02-10 05:35:00,
2013-02-10 00:40:00,29.0,22.1,30.37,West,263,1.0,1.0,75,0.00,,,0.00,WUHU216DAVISVP2,2013-02-10 05:40:00,
2013-02-10 00:45:00,28.0,21.4,30.37,WSW,255,2.0,3.0,76,0.00,,,0.00,WUHU216DAVISVP2,2013-02-10 05:45:00,
2013-02-10 00:50:00,27.5,20.9,30.37,WSW,255,1.0,3.0,76,0.00,,,0.00,WUHU216DAVISVP2,2013-02-10 05:50:00,
2013-02-10 00:55:00,27.5,20.3,30.36,WSW,252,0.0,3.0,74,0.00,,,0.00,WUHU216DAVISVP2,2013-02-10 05:55:00,
2013-02-10 01:00:00,27.6,20.4,30.37,WSW,243,1.0,3.0,74,0.00,,,0.00,WUHU216DAVISVP2,2013-02-10 06:00:00,
2013-02-10 01:05:00,27.4,20.2,30.36,WSW,240,0.0,2.0,74,0.00,,,0.00,WUHU216DAVISVP2,2013-02-10 06:05:00,
2013-02-10 01:10:00,27.1,20.0,30.37,WSW,240,0.0,2.0,74,0.00,,,0.00,WUHU216DAVISVP2,2013-02-10 06:10:00,
2013-02-10 01:15:00,26.7,20.5,30.37,South,174,0.0,1.0,77,0.00,,,0.00,WUHU216DAVISVP2,2013-02-10 06:15:00,
2013-02-10 01:20:00,26.5,20.9,30.37,SE,140,0.0,1.0,79,0.00,,,0.00,WUHU216DAVISVP2,2013-02-10 06:20:00,
2013-02-10 01:25:00,26.3,21.0,30.37,SE,139,0.0,1.0,80,0.00,,,0.00,WUHU216DAVISVP2,2013-02-10 06:25:00,
2013-02-10 01:30:00,26.1,20.8,30.37,SE,139,0.0,1.0,80,0.00,,,0.00,WUHU216DAVISVP2,2013-02-10 06:30:00,
2013-02-10 01:35:00,26.1,21.1,30.37,SE,139,0.0,1.0,81,0.00,,,0.00,WUHU216DAVISVP2,2013-02-10 06:35:00,
2013-02-10 01:40:00,26.0,20.4,30.37,SE,139,0.0,0.0,79,0.00,,,0.00,WUHU216DAVISVP2,2013-02-10 06:40:00,
2013-02-10 01:45:00,26.0,21.3,30.38,SE,139,0.0,0.0,82,0.00,,,0.00,WUHU216DAVISVP2,2013-02-10 06:45:00,
2013-02-10 01:50:00,26.0,21.0,30.39,WSW,248,1.0,1.0,81,0.00,,,0.00,WUHU216DAVISVP2,2013-02-10 06:50:00,
2013-02-10 01:55:00,25.9,21.2,30.39,WSW,243,0.0,1.0,82,0.00,,,0.00,WUHU216DAVISVP2,2013-02-10 06:55:00,
2013-02-10 02:00:00,25.7,21.0,30.39,WSW,243,0.0,1.0,82,0.00,,,0.00,WUHU216DAVISVP2,2013-02-10 07:00:00,
2013-02-10 02:05:00,25.4,20.7,30.39,WSW,243,0.0,1.0,82,0.00,,,0.00,WUHU216DAVISVP2,2013-02-10 07:05:00,
2013-02-10 02:10:00,25.1,20.6,30.39,WSW,244,0.0,1.0,83,0.00,,,0.00,WUHU216DAVISVP2,2013-02-10 07:10:00,
2013-02-10 02:15:00,25.0,20.5,30.39,WSW,243,0.0,0.0,83,0.00,,,0.00,WUHU216DAVISVP2,2013-02-10 07:15:00,
2013-02-10 02:20:00,24.7,20.3,30.39,WSW,243,0.0,0.0,83,0.00,,,0.00,WUHU216DAVISVP2,2013-02-10 07:20:00,
2013-02-10 02:25:00,24.6,20.4,30.40,SSE,149,0.0,1.0,84,0.00,,,0.00,WUHU216DAVISVP2,2013-02-10 07:25:00,
2013-02-10 02:30:00,24.4,20.2,30.39,SSE,149,0.0,1.0,84,0.00,,,0.00,WUHU216DAVISVP2,2013-02-10 07:30:00,
2013-02-10 02:35:00,24.2,20.3,30.40,SSE,149,0.0,1.0,85,0.00,,,0.00,WUHU216DAVISVP2,2013-02-10 07:35:00,
2013-02-10 02:40:00,24.2,20.3,30.40,SSE,149,0.0,1.0,85,0.00,,,0.00,WUHU216DAVISVP2,2013-02-10 07:40:00,
2013-02-10 02:45:00,24.2,20.6,30.40,SSE,150,0.0,1.0,86,0.00,,,0.00,WUHU216DAVISVP2,2013-02-10 07:45:00,
2013-02-10 02:50:00,24.4,20.5,30.40,SSW,200,0.0,1.0,85,0.00,,,0.00,WUHU216DAVISVP2,2013-02-10 07:50:00,
2013-02-10 02:55:00,24.6,20.7,30.40,SW,233,0.0,1.0,85,0.00,,,0.00,WUHU216DAVISVP2,2013-02-10 07:55:00,
2013-02-10 03:00:00,24.5,20.3,30.40,South,175,0.0,1.0,84,0.00,,,0.00,WUHU216DAVISVP2,2013-02-10 08:00:00,
2013-02-10 03:05:00,24.4,20.5,30.40,SSE,162,0.0,1.0,85,0.00,,,0.00,WUHU216DAVISVP2,2013-02-10 08:05:00,
2013-02-10 03:10:00,24.4,20.5,30.40,SSE,162,0.0,1.0,85,0.00,,,0.00,WUHU216DAVISVP2,2013-02-10 08:10:00,
2013-02-10 03:15:00,24.3,20.7,30.40,SSE,162,0.0,0.0,86,0.00,,,0.00,WUHU216DAVISVP2,2013-02-10 08:15:00,
2013-02-10 03:20:00,24.2,20.6,30.40,SSE,162,0.0,0.0,86,0.00,,,0.00,WUHU216DAVISVP2,2013-02-10 08:20:00,
2013-02-10 03:25:00,24.3,21.0,30.40,SSE,162,0.0,1.0,87,0.00,,,0.00,WUHU216DAVISVP2,2013-02-10 08:25:00,
2013-02-10 03:30:00,24.3,20.7,30.40,SSE,162,0.0,1.0,86,0.00,,,0.00,WUHU216DAVISVP2,2013-02-10 08:30:00,
2013-02-10 03:35:00,24.3,20.7,30.40,SSE,162,0.0,1.0,86,0.00,,,0.00,WUHU216DAVISVP2,2013-02-10 08:35:00,
2013-02-10 03:40:00,24.4,21.0,30.40,SSE,162,0.0,1.0,87,0.00,,,0.00,WUHU216DAVISVP2,2013-02-10 08:40:00,
2013-02-10 03:45:00,24.3,20.7,30.40,SSE,162,0.0,0.0,86,0.00,,,0.00,WUHU216DAVISVP2,2013-02-10 08:45:00,
2013-02-10 03:50:00,24.2,20.6,30.40,SSE,162,0.0,0.0,86,0.00,,,0.00,WUHU216DAVISVP2,2013-02-10 08:50:00,
2013-02-10 03:55:00,24.2,20.6,30.40,SSE,162,0.0,0.0,86,0.00,,,0.00,WUHU216DAVISVP2,2013-02-10 08:55:00,
2013-02-10 04:00:00,24.3,20.9,30.40,SSE,162,0.0,0.0,87,0.00,,,0.00,WUHU216DAVISVP2,2013-02-10 09:00:00,
2013-02-10 04:05:00,24.3,20.9,30.40,SSE,162,0.0,0.0,87,0.00,,,0.00,WUHU216DAVISVP2,2013-02-10 09:05:00,
2013-02-10 04:10:00,24.4,21.1,30.40,SSE,162,0.0,0.0,87,0.00,,,0.00,WUHU216DAVISVP2,2013-02-10 09:10:00,
2013-02-10 04:15:00,24.4,21.0,30.40,SSE,162,0.0,0.0,87,0.00,,,0.00,WUHU216DAVISVP2,2013-02-10 09:15:00,
2013-02-10 04:20:00,24.5,20.9,30.40,SSE,162,0.0,0.0,86,0.00,,,0.00,WUHU216DAVISVP2,2013-02-10 09:20:00,
2013-02-10 04:25:00,24.3,20.7,30.40,SSE,162,0.0,0.0,86,0.00,,,0.00,WUHU216DAVISVP2,2013-02-10 09:25:00,
2013-02-10 04:30:00,24.2,20.9,30.40,SSE,162,0.0,0.0,87,0.00,,,0.00,WUHU216DAVISVP2,2013-02-10 09:30:00,
2013-02-10 04:35:00,24.5,21.1,30.40,SSE,162,0.0,0.0,87,0.00,,,0.00,WUHU216DAVISVP2,2013-02-10 09:35:00,
2013-02-10 04:40:00,24.6,21.2,30.40,SSE,162,0.0,0.0,87,0.00,,,0.00,WUHU216DAVISVP2,2013-02-10 09:40:00,
2013-02-10 04:45:00,24.6,21.2,30.41,SSE,162,0.0,0.0,87,0.00,,,0.00,WUHU216DAVISVP2,2013-02-10 09:45:00,
2013-02-10 04:50:00,24.6,21.0,30.41,SSE,162,0.0,0.0,86,0.00,,,0.00,WUHU216DAVISVP2,2013-02-10 09:50:00,
2013-02-10 04:55:00,24.5,20.9,30.41,SSE,162,0.0,0.0,86,0.00,,,0.00,WUHU216DAVISVP2,2013-02-10 09:55:00,
2013-02-10 05:00:00,24.5,20.9,30.41,SSE,162,0.0,0.0,86,0.00,,,0.00,WUHU216DAVISVP2,2013-02-10 10:00:00,
2013-02-10 05:05:00,24.6,21.0,30.41,SSE,162,0.0,0.0,86,0.00,,,0.00,WUHU216DAVISVP2,2013-02-10 10:05:00,
2013-02-10 05:10:00,24.8,20.9,30.41,SSE,162,0.0,0.0,85,0.00,,,0.00,WUHU216DAVISVP2,2013-02-10 10:10:00,
2013-02-10 05:15:00,25.0,21.1,30.41,SSE,162,0.0,0.0,85,0.00,,,0.00,WUHU216DAVISVP2,2013-02-10 10:15:00,
2013-02-10 05:20:00,25.1,21.2,30.41,SSE,162,0.0,0.0,85,0.00,,,0.00,WUHU216DAVISVP2,2013-02-10 10:20:00,
2013-02-10 05:25:00,25.0,21.1,30.41,SSE,162,0.0,0.0,85,0.00,,,0.00,WUHU216DAVISVP2,2013-02-10 10:25:00,
2013-02-10 05:30:00,25.0,21.1,30.41,SSE,162,0.0,0.0,85,0.00,,,0.00,WUHU216DAVISVP2,2013-02-10 10:30:00,
2013-02-10 05:35:00,25.0,21.4,30.41,SSE,162,0.0,0.0,86,0.00,,,0.00,WUHU216DAVISVP2,2013-02-10 10:35:00,
2013-02-10 05:40:00,25.1,21.5,30.42,SSE,162,0.0,0.0,86,0.00,,,0.00,WUHU216DAVISVP2,2013-02-10 10:40:00,
2013-02-10 05:45:00,25.2,21.6,30.42,SSE,162,0.0,0.0,86,0.00,,,0.00,WUHU216DAVISVP2,2013-02-10 10:45:00,
2013-02-10 05:50:00,25.3,21.7,30.42,SSE,162,0.0,0.0,86,0.00,,,0.00,WUHU216DAVISVP2,2013-02-10 10:50:00,
2013-02-10 05:55:00,25.4,21.5,30.42,SSE,162,0.0,0.0,85,0.00,,,0.00,WUHU216DAVISVP2,2013-02-10 10:55:00,
2013-02-10 06:00:00,25.6,22.0,30.42,SSE,162,0.0,0.0,86,0.00,,,0.00,WUHU216DAVISVP2,2013-02-10 11:00:00,
2013-02-10 06:05:00,26.0,21.8,30.42,SSE,162,0.0,1.0,84,0.00,,,0.00,WUHU216DAVISVP2,2013-02-10 11:05:00,
2013-02-10 06:10:00,27.1,21.5,30.42,East,89,0.0,3.0,79,0.00,,,0.00,WUHU216DAVISVP2,2013-02-10 11:10:00,
2013-02-10 06:15:00,28.0,20.8,30.43,NE,39,1.0,4.0,74,0.00,,,0.00,WUHU216DAVISVP2,2013-02-10 11:15:00,
2013-02-10 06:20:00,28.2,20.7,30.43,NNE,25,1.0,4.0,73,0.00,,,0.00,WUHU216DAVISVP2,2013-02-10 11:20:00,
2013-02-10 06:25:00,28.1,20.3,30.43,ENE,69,1.0,4.0,72,0.00,,,0.00,WUHU216DAVISVP2,2013-02-10 11:25:00,
2013-02-10 06:30:00,28.3,20.2,30.44,ENE,70,0.0,4.0,71,0.00,,,0.00,WUHU216DAVISVP2,2013-02-10 11:30:00,
2013-02-10 06:35:00,28.2,21.0,30.44,ENE,70,0.0,2.0,74,0.00,,,0.00,WUHU216DAVISVP2,2013-02-10 11:35:00,
2013-02-10 06:40:00,27.8,21.8,30.44,ENE,70,0.0,1.0,78,0.00,,,0.00,WUHU216DAVISVP2,2013-02-10 11:40:00,
2013-02-10 06:45:00,27.4,21.2,30.44,ENE,70,0.0,1.0,77,0.00,,,0.00,WUHU216DAVISVP2,2013-02-10 11:45:00,
2013-02-10 06:50:00,27.4,21.8,30.45,ENE,69,0.0,1.0,79,0.00,,,0.00,WUHU216DAVISVP2,2013-02-10 11:50:00,
2013-02-10 06:55:00,27.1,21.2,30.45,ENE,70,0.0,1.0,78,0.00,,,0.00,WUHU216DAVISVP2,2013-02-10 11:55:00,
2013-02-10 07:00:00,27.3,21.0,30.45,NE,43,0.0,1.0,77,0.00,,,0.00,WUHU216DAVISVP2,2013-02-10 12:00:00,
2013-02-10 07:05:00,28.1,20.6,30.45,NE,41,2.0,5.0,73,0.00,,,0.00,WUHU216DAVISVP2,2013-02-10 12:05:00,
2013-02-10 07:10:00,28.9,20.3,30.45,ENE,63,3.0,5.0,70,0.00,,,0.00,WUHU216DAVISVP2,2013-02-10 12:10:00,
2013-02-10 07:15:00,29.4,20.2,30.46,ENE,60,6.0,6.0,68,0.00,,,0.00,WUHU216DAVISVP2,2013-02-10 12:15:00,
2013-02-10 07:20:00,29.7,20.1,30.46,NE,50,4.0,6.0,67,0.00,,,0.00,WUHU216DAVISVP2,2013-02-10 12:20:00,
2013-02-10 07:25:00,29.7,20.1,30.46,ENE,58,2.0,6.0,67,0.00,,,0.00,WUHU216DAVISVP2,2013-02-10 12:25:00,
2013-02-10 07:30:00,29.9,19.6,30.46,ENE,60,6.0,7.0,65,0.00,,,0.00,WUHU216DAVISVP2,2013-02-10 12:30:00,
2013-02-10 07:35:00,30.2,19.5,30.47,ENE,64,5.0,7.0,64,0.00,,,0.00,WUHU216DAVISVP2,2013-02-10 12:35:00,
2013-02-10 07:40:00,30.3,20.0,30.47,ENE,63,5.0,8.0,65,0.00,,,0.00,WUHU216DAVISVP2,2013-02-10 12:40:00,
2013-02-10 07:45:00,30.3,19.6,30.47,NE,55,3.0,8.0,64,0.00,,,0.00,WUHU216DAVISVP2,2013-02-10 12:45:00,
2013-02-10 07:50:00,30.3,20.0,30.48,ENE,60,3.0,7.0,65,0.00,,,0.00,WUHU216DAVISVP2,2013-02-10 12:50:00,
2013-02-10 07:55:00,30.3,20.0,30.48,NE,56,2.0,7.0,65,0.00,,,0.00,WUHU216DAVISVP2,2013-02-10 12:55:00,
2013-02-10 08:00:00,30.4,20.0,30.48,NE,53,3.0,7.0,65,0.00,,,0.00,WUHU216DAVISVP2,2013-02-10 13:00:00,
2013-02-10 08:05:00,30.4,20.5,30.48,NE,46,4.0,7.0,66,0.00,,,0.00,WUHU216DAVISVP2,2013-02-10 13:05:00,
2013-02-10 08:10:00,30.6,20.3,30.48,ENE,63,6.0,6.0,65,0.00,,,0.00,WUHU216DAVISVP2,2013-02-10 13:10:00,
2013-02-10 08:15:00,30.8,20.1,30.48,NE,56,3.0,7.0,64,0.00,,,0.00,WUHU216DAVISVP2,2013-02-10 13:15:00,
2013-02-10 08:20:00,31.0,20.7,30.49,NE,53,3.0,7.0,65,0.00,,,0.00,WUHU216DAVISVP2,2013-02-10 13:20:00,
2013-02-10 08:25:00,31.0,20.7,30.49,ENE,62,2.0,6.0,65,0.00,,,0.00,WUHU216DAVISVP2,2013-02-10 13:25:00,
2013-02-10 08:30:00,31.2,20.5,30.49,NE,39,3.0,6.0,64,0.00,,,0.00,WUHU216DAVISVP2,2013-02-10 13:30:00,
2013-02-10 08:35:00,31.4,20.3,30.49,ENE,57,4.0,6.0,63,0.00,,,0.00,WUHU216DAVISVP2,2013-02-10 13:35:00,
2013-02-10 08:40:00,31.7,20.6,30.49,ENE,57,5.0,5.0,63,0.00,,,0.00,WUHU216DAVISVP2,2013-02-10 13:40:00,
2013-02-10 08:45:00,32.1,21.0,30.49,ENE,76,4.0,5.0,63,0.00,,,0.00,WUHU216DAVISVP2,2013-02-10 13:45:00,
2013-02-10 08:50:00,32.5,21.0,30.49,NE,39,3.0,5.0,62,0.00,,,0.00,WUHU216DAVISVP2,2013-02-10 13:50:00,
2013-02-10 08:55:00,32.8,20.8,30.49,ENE,64,4.0,5.0,61,0.00,,,0.00,WUHU216DAVISVP2,2013-02-10 13:55:00,
2013-02-10 09:00:00,33.1,21.2,30.49,NE,43,3.0,6.0,61,0.00,,,0.00,WUHU216DAVISVP2,2013-02-10 14:00:00,
2013-02-10 09:05:00,33.4,21.0,30.49,NE,49,2.0,6.0,60,0.00,,,0.00,WUHU216DAVISVP2,2013-02-10 14:05:00,
2013-02-10 09:10:00,33.4,21.0,30.49,NE,56,3.0,6.0,60,0.00,,,0.00,WUHU216DAVISVP2,2013-02-10 14:10:00,
2013-02-10 09:15:00,33.5,21.1,30.49,ENE,64,4.0,6.0,60,0.00,,,0.00,WUHU216DAVISVP2,2013-02-10 14:15:00,
2013-02-10 09:20:00,33.9,21.5,30.49,ENE,68,3.0,6.0,60,0.00,,,0.00,WUHU216DAVISVP2,2013-02-10 14:20:00,
2013-02-10 09:25:00,34.5,21.7,30.48,ENE,64,5.0,6.0,59,0.00,,,0.00,WUHU216DAVISVP2,2013-02-10 14:25:00,
2013-02-10 09:30:00,35.0,20.5,30.48,ENE,67,5.0,9.0,55,0.00,,,0.00,WUHU216DAVISVP2,2013-02-10 14:30:00,
2013-02-10 09:35:00,35.2,20.2,30.48,ENE,76,10.0,10.0,54,0.00,,,0.00,WUHU216DAVISVP2,2013-02-10 14:35:00,
2013-02-10 09:40:00,35.1,19.2,30.48,ENE,57,7.0,10.0,52,0.00,,,0.00,WUHU216DAVISVP2,2013-02-10 14:40:00,
2013-02-10 09:45:00,35.2,19.8,30.49,SSE,166,1.0,10.0,53,0.00,,,0.00,WUHU216DAVISVP2,2013-02-10 14:45:00,
2013-02-10 09:50:00,35.3,19.8,30.49,WSW,244,2.0,9.0,53,0.00,,,0.00,WUHU216DAVISVP2,2013-02-10 14:50:00,
2013-02-10 09:55:00,35.9,20.9,30.49,SE,126,0.0,9.0,54,0.00,,,0.00,WUHU216DAVISVP2,2013-02-10 14:55:00,
2013-02-10 10:00:00,35.7,19.8,30.49,ENE,60,6.0,9.0,52,0.00,,,0.00,WUHU216DAVISVP2,2013-02-10 15:00:00,
2013-02-10 10:05:00,35.7,20.7,30.50,WSW,255,1.0,9.0,54,0.00,,,0.00,WUHU216DAVISVP2,2013-02-10 15:05:00,
2013-02-10 10:10:00,36.1,20.6,30.50,SW,214,1.0,8.0,53,0.00,,,0.00,WUHU216DAVISVP2,2013-02-10 15:10:00,
2013-02-10 10:15:00,36.7,21.2,30.50,ESE,108,1.0,8.0,53,0.00,,,0.00,WUHU216DAVISVP2,2013-02-10 15:15:00,
2013-02-10 10:20:00,37.1,21.1,30.50,East,90,1.0,6.0,52,0.00,,,0.00,WUHU216DAVISVP2,2013-02-10 15:20:00,
2013-02-10 10:25:00,37.5,21.4,30.50,South,174,1.0,4.0,52,0.00,,,0.00,WUHU216DAVISVP2,2013-02-10 15:25:00,
2013-02-10 10:30:00,38.0,21.4,30.49,South,179,1.0,4.0,51,0.00,,,0.00,WUHU216DAVISVP2,2013-02-10 15:30:00,
2013-02-10 10:35:00,38.7,21.6,30.49,NNW,342,1.0,4.0,50,0.00,,,0.00,WUHU216DAVISVP2,2013-02-10 15:35:00,
2013-02-10 10:40:00,39.6,21.5,30.49,SE,145,2.0,4.0,48,0.00,,,0.00,WUHU216DAVISVP2,2013-02-10 15:40:00,
2013-02-10 10:45:00,39.9,21.7,30.48,SW,236,1.0,6.0,48,0.00,,,0.00,WUHU216DAVISVP2,2013-02-10 15:45:00,
2013-02-10 10:50:00,40.1,21.9,30.48,SE,142,3.0,6.0,48,0.00,,,0.00,WUHU216DAVISVP2,2013-02-10 15:50:00,
2013-02-10 10:55:00,40.3,22.1,30.47,WNW,285,2.0,5.0,48,0.00,,,0.00,WUHU216DAVISVP2,2013-02-10 15:55:00,
2013-02-10 11:00:00,40.4,21.7,30.47,SE,139,1.0,5.0,47,0.00,,,0.00,WUHU216DAVISVP2,2013-02-10 16:00:00,
2013-02-10 11:05:00,40.7,23.0,30.47,South,173,0.0,5.0,49,0.00,,,0.00,WUHU216DAVISVP2,2013-02-10 16:05:00,
2013-02-10 11:10:00,41.3,22.0,30.47,WSW,249,0.0,5.0,46,0.00,,,0.00,WUHU216DAVISVP2,2013-02-10 16:10:00,
2013-02-10 11:15:00,41.1,21.3,30.47,NW,309,0.0,3.0,45,0.00,,,0.00,WUHU216DAVISVP2,2013-02-10 16:15:00,
2013-02-10 11:20:00,41.3,22.0,30.47,West,263,0.0,4.0,46,0.00,,,0.00,WUHU216DAVISVP2,2013-02-10 16:20:00,
2013-02-10 11:25:00,41.6,21.1,30.48,SSE,147,1.0,4.0,44,0.00,,,0.00,WUHU216DAVISVP2,2013-02-10 16:25:00,
2013-02-10 11:30:00,42.2,21.8,30.48,West,277,0.0,4.0,44,0.00,,,0.00,WUHU216DAVISVP2,2013-02-10 16:30:00,
2013-02-10 11:35:00,42.2,21.1,30.48,ESE,116,1.0,4.0,43,0.00,,,0.00,WUHU216DAVISVP2,2013-02-10 16:35:00,
2013-02-10 11:40:00,42.3,21.2,30.47,SW,229,0.0,4.0,43,0.00,,,0.00,WUHU216DAVISVP2,2013-02-10 16:40:00,
2013-02-10 11:45:00,42.7,22.7,30.46,SSE,165,0.0,4.0,45,0.00,,,0.00,WUHU216DAVISVP2,2013-02-10 16:45:00,
2013-02-10 11:50:00,43.1,22.0,30.46,SSE,149,2.0,4.0,43,0.00,,,0.00,WUHU216DAVISVP2,2013-02-10 16:50:00,
2013-02-10 11:55:00,43.9,20.9,30.45,SW,224,1.0,5.0,40,0.00,,,0.00,WUHU216DAVISVP2,2013-02-10 16:55:00,
2013-02-10 12:00:00,44.6,21.6,30.45,SE,134,1.0,5.0,40,0.00,,,0.00,WUHU216DAVISVP2,2013-02-10 17:00:00,
2013-02-10 12:05:00,45.2,21.5,30.45,East,94,4.0,6.0,39,0.00,,,0.00,WUHU216DAVISVP2,2013-02-10 17:05:00,
2013-02-10 12:10:00,45.3,21.0,30.45,ESE,122,1.0,6.0,38,0.00,,,0.00,WUHU216DAVISVP2,2013-02-10 17:10:00,
2013-02-10 12:15:00,45.5,21.8,30.44,WSW,238,2.0,6.0,39,0.00,,,0.00,WUHU216DAVISVP2,2013-02-10 17:15:00,
2013-02-10 12:20:00,45.7,21.3,30.43,South,174,1.0,6.0,38,0.00,,,0.00,WUHU216DAVISVP2,2013-02-10 17:20:00,
2013-02-10 12:25:00,45.7,20.7,30.43,WSW,252,2.0,7.0,37,0.00,,,0.00,WUHU216DAVISVP2,2013-02-10 17:25:00,
2013-02-10 12:30:00,46.0,21.6,30.42,NNW,328,1.0,7.0,38,0.00,,,0.00,WUHU216DAVISVP2,2013-02-10 17:30:00,
2013-02-10 12:35:00,46.5,20.7,30.42,SSW,203,3.0,7.0,36,0.00,,,0.00,WUHU216DAVISVP2,2013-02-10 17:35:00,
2013-02-10 12:40:00,46.3,21.2,30.41,NW,314,0.0,6.0,37,0.00,,,0.00,WUHU216DAVISVP2,2013-02-10 17:40:00,
2013-02-10 12:45:00,46.5,22.0,30.41,WNW,282,2.0,6.0,38,0.00,,,0.00,WUHU216DAVISVP2,2013-02-10 17:45:00,
2013-02-10 12:50:00,47.3,21.7,30.40,NE,40,1.0,6.0,36,0.00,,,0.00,WUHU216DAVISVP2,2013-02-10 17:50:00,
2013-02-10 12:55:00,47.8,21.9,30.40,NE,49,1.0,6.0,36,0.00,,,0.00,WUHU216DAVISVP2,2013-02-10 17:55:00,
2013-02-10 13:00:00,48.1,22.2,30.39,ESE,106,3.0,6.0,36,0.00,,,0.00,WUHU216DAVISVP2,2013-02-10 18:00:00,
2013-02-10 13:05:00,48.4,21.1,30.39,SSW,198,1.0,6.0,34,0.00,,,0.00,WUHU216DAVISVP2,2013-02-10 18:05:00,
2013-02-10 13:10:00,48.8,23.0,30.40,South,174,0.0,5.0,36,0.00,,,0.00,WUHU216DAVISVP2,2013-02-10 18:10:00,
2013-02-10 13:15:00,48.9,21.5,30.39,SSW,198,2.0,5.0,34,0.00,,,0.00,WUHU216DAVISVP2,2013-02-10 18:15:00,
2013-02-10 13:20:00,48.5,22.1,30.39,SW,216,1.0,7.0,35,0.00,,,0.00,WUHU216DAVISVP2,2013-02-10 18:20:00,
2013-02-10 13:25:00,49.0,23.0,30.38,WSW,258,0.0,7.0,36,0.00,,,0.00,WUHU216DAVISVP2,2013-02-10 18:25:00,
2013-02-10 13:30:00,49.6,22.3,30.38,SW,225,2.0,7.0,34,0.00,,,0.00,WUHU216DAVISVP2,2013-02-10 18:30:00,
2013-02-10 14:00:00,50.7,21.9,30.37,WSW,248,2.0,10.0,32,0.00,,,0.00,WUHU216DAVISVP2,2013-02-10 19:00:00,
2013-02-10 14:30:00,52.4,21.0,30.34,SW,225,2.0,8.0,29,0.00,,,0.00,WUHU216DAVISVP2,2013-02-10 19:30:00,
2013-02-10 15:00:00,52.6,21.2,30.32,SW,225,2.0,8.0,29,0.00,,,0.00,WUHU216DAVISVP2,2013-02-10 20:00:00,
2013-02-10 15:30:00,53.0,19.9,30.32,SW,225,2.0,6.0,27,0.00,,,0.00,WUHU216DAVISVP2,2013-02-10 20:30:00,
2013-02-10 16:00:00,52.8,20.5,30.32,SW,225,2.0,12.0,28,0.00,,,0.00,WUHU216DAVISVP2,2013-02-10 21:00:00,
2013-02-10 16:30:00,51.0,21.4,30.32,SSW,203,2.0,10.0,31,0.00,,,0.00,WUHU216DAVISVP2,2013-02-10 21:30:00,
2013-02-10 17:00:00,49.9,21.9,30.30,SW,225,1.0,6.0,33,0.00,,,0.00,WUHU216DAVISVP2,2013-02-10 22:00:00,
2013-02-10 17:30:00,48.9,22.4,30.29,SE,135,1.0,4.0,35,0.00,,,0.00,WUHU216DAVISVP2,2013-02-10 22:30:00,
2013-02-10 18:00:00,47.7,23.3,30.29,West,270,0.0,3.0,38,0.00,,,0.00,WUHU216DAVISVP2,2013-02-10 23:00:00,
2013-02-10 18:30:00,46.7,23.6,30.30,SE,135,0.0,2.0,40,0.00,,,0.00,WUHU216DAVISVP2,2013-02-10 23:30:00,
2013-02-10 19:00:00,45.9,23.5,30.31,ESE,113,0.0,1.0,41,0.00,,,0.00,WUHU216DAVISVP2,2013-02-11 00:00:00,
2013-02-10 19:30:00,46.2,24.3,30.30,North,0,0.0,0.0,42,0.00,,,0.00,WUHU216DAVISVP2,2013-02-11 00:30:00,
2013-02-10 20:00:00,45.8,24.5,30.30,North,0,0.0,0.0,43,0.00,,,0.00,WUHU216DAVISVP2,2013-02-11 01:00:00,
2013-02-10 20:30:00,46.1,24.8,30.31,North,0,0.0,0.0,43,0.00,,,0.00,WUHU216DAVISVP2,2013-02-11 01:30:00,
2013-02-10 21:00:00,46.3,27.2,30.30,North,0,0.0,0.0,47,0.00,,,0.00,WUHU216DAVISVP2,2013-02-11 02:00:00,
2013-02-10 21:30:00,42.1,34.7,30.30,WSW,248,0.0,1.0,75,0.00,,,0.00,WUHU216DAVISVP2,2013-02-11 02:30:00,
2013-02-10 22:00:00,40.5,36.3,30.28,WSW,248,0.0,1.0,85,0.01,,,0.01,WUHU216DAVISVP2,2013-02-11 03:00:00,
2013-02-10 22:30:00,40.4,36.8,30.23,SE,135,0.0,2.0,87,0.02,,,0.03,WUHU216DAVISVP2,2013-02-11 03:30:00,
2013-02-10 23:00:00,40.0,36.7,30.22,SW,225,0.0,1.0,88,0.01,,,0.04,WUHU216DAVISVP2,2013-02-11 04:00:00,
2013-02-10 23:30:00,40.8,36.6,30.21,WSW,248,0.0,1.0,85,0.00,,,0.04,WUHU216DAVISVP2,2013-02-11 04:30:00,